Time;durP1;ratioP1;P1;durP2;ratioP2;P2;SDS_P1;SDS_P2;PMS_P1;PMS_P2;Temp;Humidity;BMP_temperature;BMP_pressure;BME280_temperature;BME280_humidity;BME280_pressure;Samples;Min_cycle;Max_cycle;Signal;HPM_P1;HPM_P2
2022/08/05 00:00:12;;;;;;;;;;;;;;;24.35;58.63;101270.38;1024557;29;651;-81
2022/08/05 00:01:03;;;;;;;;;;;;;;;24.30;59.05;101270.06;1024530;29;674;-81
2022/08/05 00:01:53;;;;;;;;;;;;;;;24.33;58.78;101275.16;1026150;28;745;-80
2022/08/05 00:02:44;;;;;;;;;;;;;;;24.32;58.87;101267.16;1024421;29;698;-80
2022/08/05 00:03:34;;;;;;;;;;;;;;;24.31;58.97;101277.19;1024552;29;666;-80
2022/08/05 00:04:25;;;;;;;;;;;;;;;24.33;58.97;101268.84;1025847;28;679;-80
2022/08/05 00:05:15;;;;;;;;;;;;;;;24.34;58.73;101276.84;1025365;29;687;-80
2022/08/05 00:06:05;;;;;;;;;;;;;;;24.32;58.66;101281.63;1025686;28;662;-80
2022/08/05 00:06:56;;;;;;;;;;;;;;;24.31;59.04;101282.66;1025721;28;662;-80
2022/08/05 00:07:47;;;;;;;;;;;;;;;24.32;58.95;101292.50;1025360;29;634;-80
2022/08/05 00:08:37;;;;;;;;;;;;;;;24.30;59.05;101291.84;1024704;29;710;-80
2022/08/05 00:09:28;;;;;;;;;;;;;;;24.31;59.08;101292.69;1025972;28;650;-80
2022/08/05 00:10:18;;;;;;;;;;;;;;;24.32;59.02;101300.69;1026161;28;678;-80
2022/08/05 00:11:08;;;;;;;;;;;;;;;24.34;58.97;101304.09;1025732;28;651;-80
2022/08/05 00:11:59;;;;;;;;;;;;;;;24.33;59.15;101296.94;1025227;29;611;-80
2022/08/05 00:12:49;;;;;;;;;;;;;;;24.31;58.96;101295.41;1025131;29;678;-80
2022/08/05 00:13:40;;;;;;;;;;;;;;;24.31;58.82;101299.00;1024401;29;933;-79
2022/08/05 00:14:31;;;;;;;;;;;;;;;24.32;58.94;101297.13;1024599;29;659;-78
2022/08/05 00:15:21;;;;;;;;;;;;;;;24.28;58.78;101291.16;1025888;28;678;-78
2022/08/05 00:16:12;;;;;;;;;;;;;;;24.29;58.90;101287.41;1025287;29;662;-79
2022/08/05 00:17:02;;;;;;;;;;;;;;;24.27;59.26;101286.75;1025224;28;694;-79
2022/08/05 00:17:53;;;;;;;;;;;;;;;24.27;58.98;101285.91;1025563;29;670;-79
2022/08/05 00:18:43;;;;;;;;;;;;;;;24.27;59.16;101281.28;1024419;29;667;-80
2022/08/05 00:19:33;;;;;;;;;;;;;;;24.28;58.99;101274.81;1025742;28;1294;-79
2022/08/05 00:20:24;;;;;;;;;;;;;;;24.28;59.03;101272.09;1028947;28;611;-79
2022/08/05 00:21:14;;;;;;;;;;;;;;;24.28;58.78;101266.66;1028504;28;915;-79
2022/08/05 00:22:05;;;;;;;;;;;;;;;24.26;59.23;101263.25;1029548;28;788;-79
2022/08/05 00:22:55;;;;;;;;;;;;;;;24.25;58.89;101258.84;1028933;28;1090;-79
2022/08/05 00:23:46;;;;;;;;;;;;;;;24.29;58.98;101262.06;1029088;28;769;-79
2022/08/05 00:24:36;;;;;;;;;;;;;;;24.28;58.98;101260.34;1028979;28;706;-79
2022/08/05 00:25:26;;;;;;;;;;;;;;;24.29;58.72;101262.06;1028884;28;713;-79
2022/08/05 00:26:18;;;;;;;;;;;;;;;24.29;58.84;101265.63;1028293;28;650;-79
2022/08/05 00:27:09;;;;;;;;;;;;;;;24.29;58.94;101267.50;1029580;28;630;-78
2022/08/05 00:27:59;;;;;;;;;;;;;;;24.27;58.87;101261.38;1028928;28;718;-77
2022/08/05 00:28:50;;;;;;;;;;;;;;;24.27;59.05;101264.09;1028977;28;686;-77
2022/08/05 00:29:40;;;;;;;;;;;;;;;24.28;58.91;101263.94;1028205;28;647;-78
2022/08/05 00:30:30;;;;;;;;;;;;;;;24.28;58.95;101263.06;1028999;28;663;-79
2022/08/05 00:31:21;;;;;;;;;;;;;;;24.28;58.75;101260.34;1028898;28;686;-78
2022/08/05 00:32:11;;;;;;;;;;;;;;;24.28;58.81;101268.53;1028967;28;888;-78
2022/08/05 00:33:02;;;;;;;;;;;;;;;24.25;58.89;101269.72;1028365;28;1906;-79
2022/08/05 00:33:52;;;;;;;;;;;;;;;24.26;58.99;101263.25;1028930;28;728;-79
2022/08/05 00:34:43;;;;;;;;;;;;;;;24.26;58.87;101257.81;1028287;28;753;-79
2022/08/05 00:35:33;;;;;;;;;;;;;;;24.24;58.89;101257.13;1028201;28;607;-78
2022/08/05 00:36:24;;;;;;;;;;;;;;;24.20;58.80;101248.44;1028962;28;729;-79
2022/08/05 00:37:14;;;;;;;;;;;;;;;24.19;59.24;101245.88;1028348;28;678;-79
2022/08/05 00:38:04;;;;;;;;;;;;;;;24.21;58.93;101254.72;1028834;28;650;-79
2022/08/05 00:38:55;;;;;;;;;;;;;;;24.23;58.84;101258.13;1028257;28;686;-79
2022/08/05 00:39:45;;;;;;;;;;;;;;;24.23;59.30;101259.00;1028838;28;685;-79
2022/08/05 00:40:36;;;;;;;;;;;;;;;24.26;58.85;101252.34;1028781;28;689;-79
2022/08/05 00:41:26;;;;;;;;;;;;;;;24.26;59.07;101252.34;1028583;28;1058;-79
2022/08/05 00:42:17;;;;;;;;;;;;;;;24.27;58.98;101254.06;1028410;28;693;-79
2022/08/05 00:43:07;;;;;;;;;;;;;;;24.24;58.96;101257.13;1028789;28;1210;-79
2022/08/05 00:43:57;;;;;;;;;;;;;;;24.24;58.76;101259.84;1027874;28;614;-80
2022/08/05 00:44:48;;;;;;;;;;;;;;;24.23;58.94;101253.56;1028913;28;615;-79
2022/08/05 00:45:38;;;;;;;;;;;;;;;24.23;58.89;101258.13;1028856;28;627;-80
2022/08/05 00:46:29;;;;;;;;;;;;;;;24.22;58.79;101256.44;1028826;28;702;-79
2022/08/05 00:47:19;;;;;;;;;;;;;;;24.21;58.99;101260.19;1028321;28;682;-81
2022/08/05 00:48:10;;;;;;;;;;;;;;;24.21;58.95;101260.19;1028859;28;663;-81
2022/08/05 00:49:00;;;;;;;;;;;;;;;24.22;58.85;101261.88;1028844;28;694;-82
2022/08/05 00:49:50;;;;;;;;;;;;;;;24.23;59.09;101263.56;1028882;28;694;-81
2022/08/05 00:50:41;;;;;;;;;;;;;;;24.20;58.72;101261.19;1028987;28;648;-81
2022/08/05 00:51:31;;;;;;;;;;;;;;;24.22;58.78;101267.31;1028836;28;627;-79
2022/08/05 00:52:22;;;;;;;;;;;;;;;24.20;58.73;101266.66;1028661;28;706;-79
2022/08/05 00:53:12;;;;;;;;;;;;;;;24.20;58.89;101270.22;1028647;28;1973;-79
2022/08/05 00:54:03;;;;;;;;;;;;;;;24.22;58.76;101273.63;1029900;28;651;-78
2022/08/05 00:54:53;;;;;;;;;;;;;;;24.18;58.78;101266.00;1028846;28;683;-79
2022/08/05 00:55:43;;;;;;;;;;;;;;;24.20;59.15;101272.09;1028808;28;662;-80
2022/08/05 00:56:34;;;;;;;;;;;;;;;24.20;59.03;101270.22;1028405;28;661;-82
2022/08/05 00:57:24;;;;;;;;;;;;;;;24.19;58.79;101273.97;1028183;28;1097;-83
2022/08/05 00:58:18;;;;;;;;;;;;;;;24.21;59.00;101276.53;1027824;28;1057;-83
2022/08/05 00:59:08;;;;;;;;;;;;;;;24.19;58.90;101270.41;1029454;28;1142;-82
2022/08/05 00:59:58;;;;;;;;;;;;;;;24.19;58.90;101278.56;1028874;28;1220;-82
2022/08/05 01:00:49;;;;;;;;;;;;;;;24.18;58.89;101266.81;1029020;28;1193;-82
2022/08/05 01:01:40;;;;;;;;;;;;;;;24.17;59.22;101275.19;1027829;28;1244;-82
2022/08/05 01:02:30;;;;;;;;;;;;;;;24.18;59.06;101266.81;1028737;28;1268;-82
2022/08/05 01:03:20;;;;;;;;;;;;;;;24.19;58.94;101267.66;1029347;28;1212;-82
2022/08/05 01:04:11;;;;;;;;;;;;;;;24.21;58.80;101271.06;1026601;28;1229;-82
2022/08/05 01:05:01;;;;;;;;;;;;;;;24.17;59.04;101264.31;1026944;28;1146;-81
2022/08/05 01:05:52;;;;;;;;;;;;;;;24.17;59.20;101264.31;1029008;28;1264;-80
2022/08/05 01:06:42;;;;;;;;;;;;;;;24.19;58.96;101262.22;1026785;28;1236;-80
2022/08/05 01:07:33;;;;;;;;;;;;;;;24.19;58.99;101262.22;1028239;28;1252;-80
2022/08/05 01:08:23;;;;;;;;;;;;;;;24.18;59.11;101263.28;1028252;28;1494;-81
2022/08/05 01:09:13;;;;;;;;;;;;;;;24.18;58.88;101266.00;1028143;28;1268;-81
2022/08/05 01:10:04;;;;;;;;;;;;;;;24.19;58.75;101265.81;1028507;28;1105;-81
2022/08/05 01:10:54;;;;;;;;;;;;;;;24.19;58.86;101265.81;1028161;28;1284;-80
2022/08/05 01:11:47;;;;;;;;;;;;;;;24.16;58.87;101274.34;1028427;28;1261;-79
2022/08/05 01:12:37;;;;;;;;;;;;;;;24.17;59.06;101277.94;1026470;28;1236;-80
2022/08/05 01:13:27;;;;;;;;;;;;;;;24.16;59.10;101284.41;1027544;28;1899;-81
2022/08/05 01:14:18;;;;;;;;;;;;;;;24.16;58.83;101281.66;1026346;28;1197;-80
2022/08/05 01:15:08;;;;;;;;;;;;;;;24.17;59.02;101284.22;1027680;28;1184;-81
2022/08/05 01:15:59;;;;;;;;;;;;;;;24.16;59.12;101274.34;1027586;28;1386;-81
2022/08/05 01:16:49;;;;;;;;;;;;;;;24.14;58.89;101275.56;1027772;28;1262;-81
2022/08/05 01:17:39;;;;;;;;;;;;;;;24.16;58.59;101278.94;1027687;28;1240;-81
2022/08/05 01:18:30;;;;;;;;;;;;;;;24.17;58.80;101277.94;1028648;28;1208;-81
2022/08/05 01:19:20;;;;;;;;;;;;;;;24.15;58.80;101271.81;1028458;28;1172;-81
2022/08/05 01:20:11;;;;;;;;;;;;;;;24.15;59.14;101266.34;1028449;28;1216;-81
2022/08/05 01:21:01;;;;;;;;;;;;;;;24.17;58.99;101270.59;1026900;28;1178;-81
2022/08/05 01:21:52;;;;;;;;;;;;;;;24.16;59.05;101268.06;1028068;28;1217;-80
2022/08/05 01:22:42;;;;;;;;;;;;;;;24.17;58.63;101265.16;1028012;28;1177;-80
2022/08/05 01:23:32;;;;;;;;;;;;;;;24.16;58.84;101268.06;1028024;28;1237;-80
2022/08/05 01:24:23;;;;;;;;;;;;;;;24.17;58.95;101270.59;1028114;28;1249;-80
2022/08/05 01:25:13;;;;;;;;;;;;;;;24.15;58.86;101267.22;1028577;28;1157;-79
2022/08/05 01:26:04;;;;;;;;;;;;;;;24.16;58.80;101266.19;1028115;28;1220;-79
2022/08/05 01:26:54;;;;;;;;;;;;;;;24.15;59.09;101271.81;1027808;28;1229;-79
2022/08/05 01:27:45;;;;;;;;;;;;;;;24.12;58.86;101274.88;1028013;28;1142;-79
2022/08/05 01:28:35;;;;;;;;;;;;;;;24.12;58.93;101277.59;1027756;28;1280;-79
2022/08/05 01:29:25;;;;;;;;;;;;;;;24.13;58.94;101271.97;1028174;28;1260;-79
2022/08/05 01:30:16;;;;;;;;;;;;;;;24.16;58.96;101273.50;1026956;28;1134;-79
2022/08/05 01:31:07;;;;;;;;;;;;;;;24.15;58.69;101271.81;1027006;28;1162;-79
2022/08/05 01:31:57;;;;;;;;;;;;;;;24.14;58.68;101265.50;1027472;28;1169;-79
2022/08/05 01:32:48;;;;;;;;;;;;;;;24.14;59.07;101264.66;1028606;28;1323;-79
2022/08/05 01:33:38;;;;;;;;;;;;;;;24.16;58.68;101268.06;1027208;28;1169;-80
2022/08/05 01:34:28;;;;;;;;;;;;;;;24.15;58.96;101269.09;1027612;28;1186;-80
2022/08/05 01:35:19;;;;;;;;;;;;;;;24.13;58.90;101263.81;1027574;28;1182;-78
2022/08/05 01:36:09;;;;;;;;;;;;;;;24.13;58.72;101263.81;1027671;28;1185;-79
2022/08/05 01:37:00;;;;;;;;;;;;;;;24.14;58.90;101268.22;1027632;28;1102;-81
2022/08/05 01:37:50;;;;;;;;;;;;;;;24.15;58.65;101277.25;1027851;28;1209;-80
2022/08/05 01:38:41;;;;;;;;;;;;;;;24.16;58.79;101278.94;1027714;28;1185;-80
2022/08/05 01:39:31;;;;;;;;;;;;;;;24.14;58.79;101281.00;1027767;28;1202;-81
2022/08/05 01:40:21;;;;;;;;;;;;;;;24.14;58.75;101281.00;1027791;28;1271;-80
2022/08/05 01:41:12;;;;;;;;;;;;;;;24.14;59.10;101286.44;1028184;28;1245;-79
2022/08/05 01:42:02;;;;;;;;;;;;;;;24.14;58.91;101292.75;1027998;28;1220;-79
2022/08/05 01:42:53;;;;;;;;;;;;;;;24.15;58.75;101282.69;1028741;28;1256;-80
2022/08/05 01:43:43;;;;;;;;;;;;;;;24.13;58.94;101290.19;1026545;28;1213;-80
2022/08/05 01:44:33;;;;;;;;;;;;;;;24.12;58.99;101293.94;1028130;28;1312;-80
2022/08/05 01:45:24;;;;;;;;;;;;;;;24.11;58.77;101292.25;1027806;28;1190;-79
2022/08/05 01:46:14;;;;;;;;;;;;;;;24.13;58.92;101301.09;1027949;28;1301;-80
2022/08/05 01:47:05;;;;;;;;;;;;;;;24.13;58.80;101298.38;1028238;28;1240;-80
2022/08/05 01:47:55;;;;;;;;;;;;;;;24.12;58.75;101294.78;1027981;28;1332;-80
2022/08/05 01:48:46;;;;;;;;;;;;;;;24.13;58.69;101295.63;1028282;28;1165;-80
2022/08/05 01:49:36;;;;;;;;;;;;;;;24.14;58.62;101291.88;1027063;28;1170;-78
2022/08/05 01:50:27;;;;;;;;;;;;;;;24.12;59.13;101285.78;1028993;28;666;-79
2022/08/05 01:51:17;;;;;;;;;;;;;;;24.13;58.50;101290.19;1025467;28;662;-79
2022/08/05 01:52:07;;;;;;;;;;;;;;;24.12;59.04;101297.50;1023411;29;797;-80
2022/08/05 01:52:58;;;;;;;;;;;;;;;24.12;58.78;101299.38;1029132;28;675;-80
2022/08/05 01:53:48;;;;;;;;;;;;;;;24.13;58.89;101301.09;1029071;28;679;-80
2022/08/05 01:54:39;;;;;;;;;;;;;;;24.12;58.73;101299.38;1029035;28;701;-77
2022/08/05 01:55:29;;;;;;;;;;;;;;;24.13;59.15;101301.09;1028463;28;671;-79
2022/08/05 01:56:20;;;;;;;;;;;;;;;24.14;58.81;101300.06;1028734;28;675;-79
2022/08/05 01:57:10;;;;;;;;;;;;;;;24.13;58.65;101303.81;1027709;28;1236;-79
2022/08/05 01:58:01;;;;;;;;;;;;;;;24.14;59.01;101302.78;1030980;28;1197;-79
2022/08/05 01:58:51;;;;;;;;;;;;;;;24.12;58.92;101304.84;1032409;28;1201;-79
2022/08/05 01:59:41;;;;;;;;;;;;;;;24.12;58.98;101310.28;1029346;28;1367;-79
2022/08/05 02:00:32;;;;;;;;;;;;;;;24.12;59.08;101311.13;1029140;28;1114;-78
2022/08/05 02:01:23;;;;;;;;;;;;;;;24.13;59.00;101303.81;1027836;28;1149;-80
2022/08/05 02:02:13;;;;;;;;;;;;;;;24.14;59.04;101308.22;1028501;28;1213;-80
2022/08/05 02:03:04;;;;;;;;;;;;;;;24.11;58.75;101303.97;1027945;28;1118;-80
2022/08/05 02:03:54;;;;;;;;;;;;;;;24.12;58.79;101304.84;1027929;28;1304;-81
2022/08/05 02:04:45;;;;;;;;;;;;;;;24.12;58.82;101300.22;1028092;28;1245;-80
2022/08/05 02:05:35;;;;;;;;;;;;;;;24.13;58.64;101309.25;1027676;28;1414;-79
2022/08/05 02:06:26;;;;;;;;;;;;;;;24.12;58.73;101304.84;1028133;28;1133;-79
2022/08/05 02:07:16;;;;;;;;;;;;;;;24.11;59.12;101305.84;1028547;28;1200;-80
2022/08/05 02:08:07;;;;;;;;;;;;;;;24.11;58.71;101300.41;1028406;28;1177;-80
2022/08/05 02:08:57;;;;;;;;;;;;;;;24.12;58.92;101299.38;1028992;28;1097;-80
2022/08/05 02:09:48;;;;;;;;;;;;;;;24.10;58.79;101293.25;1028976;28;1271;-80
2022/08/05 02:10:38;;;;;;;;;;;;;;;24.11;58.98;101292.25;1031047;28;1181;-79
2022/08/05 02:11:29;;;;;;;;;;;;;;;24.12;58.59;101286.63;1028036;28;1264;-82
2022/08/05 02:12:19;;;;;;;;;;;;;;;24.10;59.13;101290.53;1027486;28;1241;-81
2022/08/05 02:13:10;;;;;;;;;;;;;;;24.11;58.93;101281.34;1027586;28;1910;-81
2022/08/05 02:14:00;;;;;;;;;;;;;;;24.10;58.85;101285.94;1027696;28;1134;-81
2022/08/05 02:14:50;;;;;;;;;;;;;;;24.10;58.90;101288.66;1028902;28;1225;-81
2022/08/05 02:15:41;;;;;;;;;;;;;;;24.11;58.92;101290.38;1029000;28;1177;-81
2022/08/05 02:16:31;;;;;;;;;;;;;;;24.11;59.34;101292.25;1029010;28;1169;-81
2022/08/05 02:17:22;;;;;;;;;;;;;;;24.11;59.21;101284.06;1026555;28;1245;-81
2022/08/05 02:18:12;;;;;;;;;;;;;;;24.11;58.71;101292.25;1027863;28;1299;-81
2022/08/05 02:19:02;;;;;;;;;;;;;;;24.11;58.68;101293.09;1029193;28;1189;-81
2022/08/05 02:19:53;;;;;;;;;;;;;;;24.10;59.04;101285.94;1028839;28;1260;-80
2022/08/05 02:20:43;;;;;;;;;;;;;;;24.11;58.90;101286.78;1028925;28;1169;-80
2022/08/05 02:21:34;;;;;;;;;;;;;;;24.09;58.78;101295.13;1028918;28;1279;-80
2022/08/05 02:22:24;;;;;;;;;;;;;;;24.07;58.99;101293.59;1028080;28;1299;-80
2022/08/05 02:23:15;;;;;;;;;;;;;;;24.07;59.02;101297.19;1027752;28;1162;-79
2022/08/05 02:24:05;;;;;;;;;;;;;;;24.05;59.03;101291.06;1028425;28;614;-79
2022/08/05 02:24:56;;;;;;;;;;;;;;;24.07;59.02;101296.34;1027727;28;623;-80
2022/08/05 02:25:46;;;;;;;;;;;;;;;24.04;59.27;101294.81;1027964;28;678;-80
2022/08/05 02:26:37;;;;;;;;;;;;;;;24.05;59.10;101299.22;1028114;28;779;-80
2022/08/05 02:27:28;;;;;;;;;;;;;;;24.07;59.01;101296.34;1028878;28;698;-80
2022/08/05 02:28:18;;;;;;;;;;;;;;;24.07;59.35;101296.34;1028813;28;668;-80
2022/08/05 02:29:08;;;;;;;;;;;;;;;24.06;59.22;101294.63;1027645;28;663;-80
2022/08/05 02:29:59;;;;;;;;;;;;;;;24.08;58.69;101293.44;1028732;28;635;-80
2022/08/05 02:30:49;;;;;;;;;;;;;;;24.07;58.88;101291.75;1027601;28;1176;-80
2022/08/05 02:31:40;;;;;;;;;;;;;;;24.07;59.07;101282.72;1027653;28;1128;-80
2022/08/05 02:32:30;;;;;;;;;;;;;;;24.07;59.02;101285.44;1028926;28;1167;-80
2022/08/05 02:33:21;;;;;;;;;;;;;;;24.06;59.26;101284.59;1028511;28;1918;-81
2022/08/05 02:34:11;;;;;;;;;;;;;;;24.06;59.25;101284.59;1028385;28;1199;-81
2022/08/05 02:35:02;;;;;;;;;;;;;;;24.05;58.96;101279.31;1027894;28;1178;-81
2022/08/05 02:35:52;;;;;;;;;;;;;;;24.04;58.96;101283.06;1028816;28;1106;-81
2022/08/05 02:36:43;;;;;;;;;;;;;;;24.04;58.85;101291.22;1032275;28;1213;-81
2022/08/05 02:37:33;;;;;;;;;;;;;;;24.03;59.11;101282.22;1031178;28;1237;-79
2022/08/05 02:38:24;;;;;;;;;;;;;;;24.02;59.36;101280.50;1028275;28;1189;-79
2022/08/05 02:39:14;;;;;;;;;;;;;;;24.03;58.99;101284.09;1026939;28;1173;-79
2022/08/05 02:40:04;;;;;;;;;;;;;;;24.04;58.73;101283.06;1027331;28;1185;-79
2022/08/05 02:40:57;;;;;;;;;;;;;;;24.06;58.98;101283.75;1027054;28;1162;-80
2022/08/05 02:41:47;;;;;;;;;;;;;;;24.05;58.84;101287.50;1027643;28;1245;-81
2022/08/05 02:42:38;;;;;;;;;;;;;;;24.04;58.86;101296.69;1027505;28;1213;-80
2022/08/05 02:43:28;;;;;;;;;;;;;;;24.03;58.95;101289.53;1028017;28;1209;-79
2022/08/05 02:44:19;;;;;;;;;;;;;;;24.03;59.16;101293.09;1028840;28;707;-80
2022/08/05 02:45:09;;;;;;;;;;;;;;;24.02;59.22;101287.84;1027841;28;643;-79
2022/08/05 02:45:59;;;;;;;;;;;;;;;24.03;59.16;101281.38;1028002;28;717;-79
2022/08/05 02:46:50;;;;;;;;;;;;;;;24.01;58.98;101284.25;1027599;28;683;-79
2022/08/05 02:47:40;;;;;;;;;;;;;;;24.01;58.82;101283.41;1027783;28;681;-79
2022/08/05 02:48:31;;;;;;;;;;;;;;;24.03;59.03;101290.38;1027986;28;647;-79
2022/08/05 02:49:21;;;;;;;;;;;;;;;23.99;58.94;101289.06;1027709;28;718;-80
2022/08/05 02:50:14;;;;;;;;;;;;;;;24.01;59.05;101286.97;1028456;28;1229;-80
2022/08/05 02:51:05;;;;;;;;;;;;;;;24.01;59.21;101291.59;1025846;28;1157;-79
2022/08/05 02:51:55;;;;;;;;;;;;;;;24.00;59.27;101285.31;1028597;28;1220;-80
2022/08/05 02:52:46;;;;;;;;;;;;;;;24.00;58.94;101279.88;1027433;28;1233;-79
2022/08/05 02:53:36;;;;;;;;;;;;;;;23.98;59.47;101283.78;1028442;28;1296;-80
2022/08/05 02:54:27;;;;;;;;;;;;;;;24.00;58.91;101284.47;1026089;28;1217;-80
2022/08/05 02:55:17;;;;;;;;;;;;;;;23.98;59.13;101283.78;1027595;28;1165;-79
2022/08/05 02:56:08;;;;;;;;;;;;;;;23.98;59.08;101286.50;1027860;28;1118;-79
2022/08/05 02:56:58;;;;;;;;;;;;;;;24.00;58.78;101279.03;1027661;28;1261;-79
2022/08/05 02:57:48;;;;;;;;;;;;;;;23.99;58.96;101280.03;1024925;28;651;-78
2022/08/05 02:58:40;;;;;;;;;;;;;;;23.98;59.29;101281.91;1026212;28;1143;-78
2022/08/05 02:59:30;;;;;;;;;;;;;;;23.98;59.26;101278.34;1028303;28;661;-78
2022/08/05 03:00:21;;;;;;;;;;;;;;;23.96;59.07;101278.53;1027991;28;647;-78
2022/08/05 03:01:11;;;;;;;;;;;;;;;23.96;59.33;101272.22;1027141;28;663;-78
2022/08/05 03:02:02;;;;;;;;;;;;;;;23.97;59.19;101277.50;1027865;28;628;-78
2022/08/05 03:02:52;;;;;;;;;;;;;;;23.95;58.96;101274.09;1028242;28;725;-78
2022/08/05 03:03:42;;;;;;;;;;;;;;;23.95;59.20;101276.81;1027798;28;632;-78
2022/08/05 03:04:33;;;;;;;;;;;;;;;23.95;59.17;101270.53;1027397;28;1204;-78
2022/08/05 03:05:23;;;;;;;;;;;;;;;23.95;58.98;101270.53;1026859;28;1037;-79
2022/08/05 03:06:14;;;;;;;;;;;;;;;23.96;59.24;101266.78;1027993;28;1227;-79
2022/08/05 03:07:04;;;;;;;;;;;;;;;23.95;58.72;101265.09;1023137;29;1113;-80
2022/08/05 03:07:54;;;;;;;;;;;;;;;23.95;59.01;101267.81;1023826;29;1129;-79
2022/08/05 03:08:45;;;;;;;;;;;;;;;23.94;58.83;101269.69;1027161;28;1128;-78
2022/08/05 03:09:35;;;;;;;;;;;;;;;23.95;58.88;101265.09;1028702;28;1168;-79
2022/08/05 03:10:26;;;;;;;;;;;;;;;23.93;59.22;101267.13;1028029;28;1148;-79
2022/08/05 03:11:16;;;;;;;;;;;;;;;23.91;59.39;101274.63;1028260;28;1144;-78
2022/08/05 03:12:09;;;;;;;;;;;;;;;23.91;59.13;101266.44;1028004;28;1155;-79
2022/08/05 03:13:00;;;;;;;;;;;;;;;23.92;58.96;101266.28;1026578;28;1242;-78
2022/08/05 03:13:50;;;;;;;;;;;;;;;23.95;58.82;101275.97;1028511;28;1112;-79
2022/08/05 03:14:41;;;;;;;;;;;;;;;23.94;58.83;101274.28;1027314;28;1163;-79
2022/08/05 03:15:31;;;;;;;;;;;;;;;23.96;59.15;101266.78;1028587;28;1101;-79
2022/08/05 03:16:21;;;;;;;;;;;;;;;23.94;59.18;101266.94;1027302;28;1068;-78
2022/08/05 03:17:12;;;;;;;;;;;;;;;23.94;58.97;101274.28;1028643;28;1160;-78
2022/08/05 03:18:02;;;;;;;;;;;;;;;23.93;58.80;101270.69;1027316;28;1025;-78
2022/08/05 03:18:53;;;;;;;;;;;;;;;23.92;59.24;101277.16;1028279;28;1218;-78
2022/08/05 03:19:43;;;;;;;;;;;;;;;23.93;59.03;101273.41;1028567;28;1110;-79
2022/08/05 03:20:34;;;;;;;;;;;;;;;23.93;59.36;101273.41;1029546;28;1124;-78
2022/08/05 03:21:24;;;;;;;;;;;;;;;23.92;58.92;101273.59;1028623;28;1151;-78
2022/08/05 03:22:14;;;;;;;;;;;;;;;23.91;58.98;101270.03;1028540;28;1113;-79
2022/08/05 03:23:05;;;;;;;;;;;;;;;23.89;59.22;101275.63;1028314;28;1108;-79
2022/08/05 03:23:56;;;;;;;;;;;;;;;23.91;59.05;101269.19;1029170;28;688;-79
2022/08/05 03:24:46;;;;;;;;;;;;;;;23.90;58.94;101273.78;1029497;28;726;-80
2022/08/05 03:25:37;;;;;;;;;;;;;;;23.88;59.06;101276.66;1029082;28;675;-79
2022/08/05 03:26:27;;;;;;;;;;;;;;;23.88;59.18;101273.94;1029757;28;713;-79
2022/08/05 03:27:18;;;;;;;;;;;;;;;23.85;59.43;101279.72;1029177;28;643;-79
2022/08/05 03:28:08;;;;;;;;;;;;;;;23.87;59.35;101280.41;1029556;28;698;-79
2022/08/05 03:28:59;;;;;;;;;;;;;;;23.89;59.05;101277.50;1029013;28;659;-79
2022/08/05 03:29:49;;;;;;;;;;;;;;;23.87;59.32;101277.69;1028792;28;707;-78
2022/08/05 03:30:40;;;;;;;;;;;;;;;23.87;59.20;101288.56;1029060;28;666;-78
2022/08/05 03:31:30;;;;;;;;;;;;;;;23.85;59.34;101285.19;1029564;28;660;-79
2022/08/05 03:32:20;;;;;;;;;;;;;;;23.86;59.03;101289.59;1029126;28;655;-79
2022/08/05 03:33:11;;;;;;;;;;;;;;;23.86;58.96;101283.31;1029669;28;1895;-78
2022/08/05 03:34:01;;;;;;;;;;;;;;;23.86;59.23;101291.47;1028962;28;797;-79
2022/08/05 03:34:52;;;;;;;;;;;;;;;23.86;58.97;101286.88;1029598;28;655;-79
2022/08/05 03:35:42;;;;;;;;;;;;;;;23.84;59.12;101294.38;1029727;28;651;-78
2022/08/05 03:36:33;;;;;;;;;;;;;;;23.86;59.17;101292.31;1029537;28;669;-78
2022/08/05 03:37:23;;;;;;;;;;;;;;;23.86;59.22;101288.75;1028889;28;713;-78
2022/08/05 03:38:13;;;;;;;;;;;;;;;23.83;58.79;101284.50;1029073;28;804;-78
2022/08/05 03:39:04;;;;;;;;;;;;;;;23.85;58.83;101287.06;1029516;28;681;-78
2022/08/05 03:39:55;;;;;;;;;;;;;;;23.82;59.14;101280.09;1029550;28;631;-78
2022/08/05 03:40:45;;;;;;;;;;;;;;;23.82;59.07;101285.56;1029149;28;699;-77
2022/08/05 03:41:35;;;;;;;;;;;;;;;23.81;59.11;101281.13;1029184;28;635;-77
2022/08/05 03:42:29;;;;;;;;;;;;;;;23.81;58.72;101275.69;1029545;28;643;-77
2022/08/05 03:43:19;;;;;;;;;;;;;;;23.81;58.92;101272.13;1029492;28;686;-78
2022/08/05 03:44:10;;;;;;;;;;;;;;;23.78;58.75;101276.03;1029588;28;674;-78
2022/08/05 03:45:00;;;;;;;;;;;;;;;23.78;59.32;101270.59;1029308;28;744;-79
2022/08/05 03:45:51;;;;;;;;;;;;;;;23.80;59.34;101274.00;1029307;28;697;-79
2022/08/05 03:46:41;;;;;;;;;;;;;;;23.80;59.13;101278.59;1029010;28;625;-79
2022/08/05 03:47:32;;;;;;;;;;;;;;;23.80;58.92;101276.72;1029591;28;1021;-79
2022/08/05 03:48:22;;;;;;;;;;;;;;;23.81;58.82;101275.69;1028943;28;678;-79
2022/08/05 03:49:12;;;;;;;;;;;;;;;23.80;59.15;101278.59;1028963;28;1136;-78
2022/08/05 03:50:03;;;;;;;;;;;;;;;23.82;58.84;101277.38;1029052;28;716;-79
2022/08/05 03:50:53;;;;;;;;;;;;;;;23.78;59.23;101278.75;1033272;28;646;-79
2022/08/05 03:51:44;;;;;;;;;;;;;;;23.79;58.80;101276.88;1033720;28;646;-78
2022/08/05 03:52:34;;;;;;;;;;;;;;;23.78;59.15;101278.75;1029754;28;659;-78
2022/08/05 03:53:25;;;;;;;;;;;;;;;23.77;59.14;101277.06;1028943;28;1957;-77
2022/08/05 03:54:15;;;;;;;;;;;;;;;23.77;58.91;101279.78;1028960;28;725;-77
2022/08/05 03:55:05;;;;;;;;;;;;;;;23.73;58.96;101278.41;1029024;28;607;-78
2022/08/05 03:55:58;;;;;;;;;;;;;;;23.74;58.90;101279.28;1028424;28;655;-78
2022/08/05 03:56:49;;;;;;;;;;;;;;;23.76;59.00;101282.66;1029591;28;875;-77
2022/08/05 03:57:39;;;;;;;;;;;;;;;23.74;59.00;101284.72;1028855;28;723;-78
2022/08/05 03:58:30;;;;;;;;;;;;;;;23.74;59.15;101280.13;1028872;28;652;-77
2022/08/05 03:59:20;;;;;;;;;;;;;;;23.76;59.06;101288.13;1025005;29;735;-78
2022/08/05 04:00:11;;;;;;;;;;;;;;;23.72;58.89;101287.59;1024999;29;656;-77
2022/08/05 04:01:01;;;;;;;;;;;;;;;23.71;58.99;101291.34;1025277;29;608;-77
2022/08/05 04:01:52;;;;;;;;;;;;;;;23.73;58.92;101293.91;1025449;29;674;-77
2022/08/05 04:02:42;;;;;;;;;;;;;;;23.73;58.76;101297.47;1024957;29;647;-77
2022/08/05 04:03:34;;;;;;;;;;;;;;;23.72;58.99;101298.50;1025023;29;675;-78
2022/08/05 04:04:25;;;;;;;;;;;;;;;23.71;58.99;101299.50;1025045;29;753;-79
2022/08/05 04:05:15;;;;;;;;;;;;;;;23.69;59.29;101298.84;1024363;29;726;-78
2022/08/05 04:06:06;;;;;;;;;;;;;;;23.70;59.15;101297.81;1023885;29;749;-79
2022/08/05 04:06:56;;;;;;;;;;;;;;;23.69;59.16;101298.84;1024100;29;647;-78
2022/08/05 04:07:47;;;;;;;;;;;;;;;23.67;58.77;101298.16;1025081;29;647;-79
2022/08/05 04:08:37;;;;;;;;;;;;;;;23.70;58.87;101295.09;1024249;29;644;-78
2022/08/05 04:09:28;;;;;;;;;;;;;;;23.68;58.75;101297.13;1025066;29;832;-79
2022/08/05 04:10:19;;;;;;;;;;;;;;;23.68;58.77;101297.13;1024512;29;616;-78
2022/08/05 04:11:09;;;;;;;;;;;;;;;23.67;58.65;101298.16;1024944;29;647;-78
2022/08/05 04:12:00;;;;;;;;;;;;;;;23.68;58.79;101299.84;1024124;29;682;-77
2022/08/05 04:12:50;;;;;;;;;;;;;;;23.66;58.93;101298.31;1024916;29;631;-78
2022/08/05 04:13:41;;;;;;;;;;;;;;;23.67;58.71;101302.75;1025018;29;678;-77
2022/08/05 04:14:31;;;;;;;;;;;;;;;23.66;59.09;101306.50;1023780;29;679;-78
2022/08/05 04:15:22;;;;;;;;;;;;;;;23.66;58.85;101303.78;1024133;29;660;-77
2022/08/05 04:16:12;;;;;;;;;;;;;;;23.64;59.07;101312.13;1023876;29;643;-77
2022/08/05 04:17:03;;;;;;;;;;;;;;;23.63;59.37;101307.72;1023972;29;695;-77
2022/08/05 04:17:53;;;;;;;;;;;;;;;23.65;58.85;101302.91;1024207;29;626;-77
2022/08/05 04:18:44;;;;;;;;;;;;;;;23.62;59.16;101305.16;1023753;29;702;-78
2022/08/05 04:19:34;;;;;;;;;;;;;;;23.65;59.33;101310.22;1026345;28;1178;-77
2022/08/05 04:20:24;;;;;;;;;;;;;;;23.64;58.78;101303.97;1028919;28;623;-77
2022/08/05 04:21:15;;;;;;;;;;;;;;;23.59;58.82;101295.47;1028865;28;736;-77
2022/08/05 04:22:05;;;;;;;;;;;;;;;23.60;58.91;101302.63;1032077;28;675;-76
2022/08/05 04:22:56;;;;;;;;;;;;;;;23.62;58.89;101303.28;1033139;28;710;-77
2022/08/05 04:23:46;;;;;;;;;;;;;;;23.61;59.21;101301.59;1027760;28;686;-77
2022/08/05 04:24:37;;;;;;;;;;;;;;;23.63;58.88;101299.56;1028993;28;701;-77